sensor_id;sensor_type;location;lat;lon;timestamp;pressure;altitude;pressure_sealevel;temperature;humidity
73242;BME280;65659;49.234;-2.094;2024-03-06T00:02:02;100754.57;;;8.32;52.72
73242;BME280;65659;49.234;-2.094;2024-03-06T00:04:27;100752.33;;;8.15;52.66
73242;BME280;65659;49.234;-2.094;2024-03-06T00:06:52;100753.92;;;8.64;52.69
73242;BME280;65659;49.234;-2.094;2024-03-06T00:09:18;100756.55;;;8.40;52.74
73242;BME280;65659;49.234;-2.094;2024-03-06T00:11:43;100759.07;;;8.38;52.81
73242;BME280;65659;49.234;-2.094;2024-03-06T00:14:09;100762.07;;;8.59;52.78
73242;BME280;65659;49.234;-2.094;2024-03-06T00:16:34;100764.62;;;8.54;52.74
73242;BME280;65659;49.234;-2.094;2024-03-06T00:19:00;100765.36;;;8.51;52.77
73242;BME280;65659;49.234;-2.094;2024-03-06T00:21:25;100770.62;;;8.28;52.71
73242;BME280;65659;49.234;-2.094;2024-03-06T00:23:50;100768.54;;;8.43;52.71
73242;BME280;65659;49.234;-2.094;2024-03-06T00:26:16;100770.30;;;8.13;52.71
73242;BME280;65659;49.234;-2.094;2024-03-06T00:28:41;100773.35;;;8.30;52.78
73242;BME280;65659;49.234;-2.094;2024-03-06T00:31:06;100775.22;;;8.27;52.78
73242;BME280;65659;49.234;-2.094;2024-03-06T00:33:31;100778.68;;;7.98;52.82
73242;BME280;65659;49.234;-2.094;2024-03-06T00:35:56;100778.94;;;8.19;52.87
73242;BME280;65659;49.234;-2.094;2024-03-06T00:38:21;100782.18;;;8.15;52.93
73242;BME280;65659;49.234;-2.094;2024-03-06T00:40:47;100782.96;;;8.36;52.93
73242;BME280;65659;49.234;-2.094;2024-03-06T00:43:12;100785.43;;;8.13;52.91
73242;BME280;65659;49.234;-2.094;2024-03-06T00:45:37;100785.31;;;8.14;52.91
73242;BME280;65659;49.234;-2.094;2024-03-06T00:48:02;100783.64;;;8.10;52.96
73242;BME280;65659;49.234;-2.094;2024-03-06T00:50:29;100782.50;;;8.11;52.94
73242;BME280;65659;49.234;-2.094;2024-03-06T00:52:53;100787.38;;;8.12;52.91
73242;BME280;65659;49.234;-2.094;2024-03-06T00:55:18;100788.75;;;8.34;52.97
73242;BME280;65659;49.234;-2.094;2024-03-06T00:57:43;100789.87;;;8.11;52.94
73242;BME280;65659;49.234;-2.094;2024-03-06T01:00:10;100788.83;;;8.08;52.96
73242;BME280;65659;49.234;-2.094;2024-03-06T01:02:34;100788.94;;;7.84;52.97
73242;BME280;65659;49.234;-2.094;2024-03-06T01:05:02;100789.31;;;8.08;52.93
73242;BME280;65659;49.234;-2.094;2024-03-06T01:07:25;100788.95;;;8.08;52.98
73242;BME280;65659;49.234;-2.094;2024-03-06T01:09:50;100790.21;;;8.06;52.99
73242;BME280;65659;49.234;-2.094;2024-03-06T01:12:16;100789.64;;;8.00;53.04
73242;BME280;65659;49.234;-2.094;2024-03-06T01:14:41;100791.03;;;7.97;53.11
73242;BME280;65659;49.234;-2.094;2024-03-06T01:17:07;100789.43;;;7.96;53.13
73242;BME280;65659;49.234;-2.094;2024-03-06T01:19:32;100788.08;;;7.96;53.03
73242;BME280;65659;49.234;-2.094;2024-03-06T01:21:57;100787.33;;;7.91;53.13
73242;BME280;65659;49.234;-2.094;2024-03-06T01:24:23;100787.84;;;7.90;53.18
73242;BME280;65659;49.234;-2.094;2024-03-06T01:26:48;100791.01;;;7.90;53.22
73242;BME280;65659;49.234;-2.094;2024-03-06T01:29:13;100791.53;;;7.87;53.07
73242;BME280;65659;49.234;-2.094;2024-03-06T01:31:38;100792.21;;;7.80;52.92
73242;BME280;65659;49.234;-2.094;2024-03-06T01:34:03;100791.26;;;7.95;52.89
73242;BME280;65659;49.234;-2.094;2024-03-06T01:36:29;100793.42;;;7.89;52.85
73242;BME280;65659;49.234;-2.094;2024-03-06T01:38:54;100790.86;;;7.84;52.88
73242;BME280;65659;49.234;-2.094;2024-03-06T01:41:19;100786.36;;;7.54;52.94
73242;BME280;65659;49.234;-2.094;2024-03-06T01:43:44;100787.21;;;7.51;53.07
73242;BME280;65659;49.234;-2.094;2024-03-06T01:46:09;100786.60;;;7.48;53.14
73242;BME280;65659;49.234;-2.094;2024-03-06T01:48:37;100785.83;;;7.73;53.18
73242;BME280;65659;49.234;-2.094;2024-03-06T01:51:02;100788.88;;;7.51;53.12
73242;BME280;65659;49.234;-2.094;2024-03-06T01:53:27;100785.93;;;7.46;53.19
73242;BME280;65659;49.234;-2.094;2024-03-06T01:55:51;100785.60;;;7.70;53.27
73242;BME280;65659;49.234;-2.094;2024-03-06T01:58:17;100784.62;;;7.47;53.29
73242;BME280;65659;49.234;-2.094;2024-03-06T02:00:41;100781.35;;;7.94;53.33
73242;BME280;65659;49.234;-2.094;2024-03-06T02:03:07;100781.08;;;7.70;53.40
73242;BME280;65659;49.234;-2.094;2024-03-06T02:05:32;100783.66;;;7.46;53.45
73242;BME280;65659;49.234;-2.094;2024-03-06T02:07:58;100777.30;;;7.72;53.42
73242;BME280;65659;49.234;-2.094;2024-03-06T02:10:22;100776.47;;;7.45;53.41
73242;BME280;65659;49.234;-2.094;2024-03-06T02:12:48;100773.80;;;7.92;53.29
73242;BME280;65659;49.234;-2.094;2024-03-06T02:15:14;100772.62;;;7.63;53.17
73242;BME280;65659;49.234;-2.094;2024-03-06T02:17:40;100771.88;;;7.58;53.19
73242;BME280;65659;49.234;-2.094;2024-03-06T02:20:06;100769.31;;;7.52;53.34
73242;BME280;65659;49.234;-2.094;2024-03-06T02:22:30;100769.22;;;7.75;53.39
73242;BME280;65659;49.234;-2.094;2024-03-06T02:24:59;100769.30;;;7.72;53.44
73242;BME280;65659;49.234;-2.094;2024-03-06T02:27:20;100769.87;;;7.70;53.56
73242;BME280;65659;49.234;-2.094;2024-03-06T02:29:46;100772.03;;;7.69;53.60
73242;BME280;65659;49.234;-2.094;2024-03-06T02:32:12;100769.68;;;7.24;53.60
73242;BME280;65659;49.234;-2.094;2024-03-06T02:34:37;100768.17;;;7.49;53.58
73242;BME280;65659;49.234;-2.094;2024-03-06T02:37:02;100766.69;;;7.23;53.58
73242;BME280;65659;49.234;-2.094;2024-03-06T02:39:27;100762.87;;;7.19;53.67
73242;BME280;65659;49.234;-2.094;2024-03-06T02:41:52;100764.37;;;7.67;53.63
73242;BME280;65659;49.234;-2.094;2024-03-06T02:44:17;100764.19;;;7.36;53.46
73242;BME280;65659;49.234;-2.094;2024-03-06T02:46:47;100767.14;;;7.60;53.30
73242;BME280;65659;49.234;-2.094;2024-03-06T02:49:08;100765.96;;;7.51;53.28
73242;BME280;65659;49.234;-2.094;2024-03-06T02:51:33;100761.89;;;6.92;53.26
73242;BME280;65659;49.234;-2.094;2024-03-06T02:53:59;100760.59;;;7.13;53.27
73242;BME280;65659;49.234;-2.094;2024-03-06T02:56:24;100757.64;;;7.08;53.43
73242;BME280;65659;49.234;-2.094;2024-03-06T02:58:50;100758.81;;;7.27;53.52
73242;BME280;65659;49.234;-2.094;2024-03-06T03:01:16;100758.36;;;7.01;53.75
73242;BME280;65659;49.234;-2.094;2024-03-06T03:03:46;100756.77;;;7.28;53.78
73242;BME280;65659;49.234;-2.094;2024-03-06T03:06:06;100754.91;;;7.30;53.74
73242;BME280;65659;49.234;-2.094;2024-03-06T03:08:32;100754.73;;;7.08;53.66
73242;BME280;65659;49.234;-2.094;2024-03-06T03:10:57;100753.80;;;7.05;53.84
73242;BME280;65659;49.234;-2.094;2024-03-06T03:13:23;100753.80;;;7.29;53.82
73242;BME280;65659;49.234;-2.094;2024-03-06T03:15:48;100752.95;;;7.33;53.81
73242;BME280;65659;49.234;-2.094;2024-03-06T03:18:13;100753.17;;;7.09;53.95
73242;BME280;65659;49.234;-2.094;2024-03-06T03:20:38;100753.88;;;7.36;54.00
73242;BME280;65659;49.234;-2.094;2024-03-06T03:23:03;100753.93;;;7.13;54.04
73242;BME280;65659;49.234;-2.094;2024-03-06T03:25:29;100753.62;;;7.40;53.99
73242;BME280;65659;49.234;-2.094;2024-03-06T03:27:54;100754.04;;;7.17;54.02
73242;BME280;65659;49.234;-2.094;2024-03-06T03:30:19;100751.44;;;7.19;54.02
73242;BME280;65659;49.234;-2.094;2024-03-06T03:32:44;100751.58;;;7.44;53.95
73242;BME280;65659;49.234;-2.094;2024-03-06T03:35:09;100749.18;;;7.43;53.90
73242;BME280;65659;49.234;-2.094;2024-03-06T03:37:35;100748.17;;;7.42;53.88
73242;BME280;65659;49.234;-2.094;2024-03-06T03:40:01;100748.83;;;6.93;53.93
73242;BME280;65659;49.234;-2.094;2024-03-06T03:42:26;100748.72;;;7.17;53.90
73242;BME280;65659;49.234;-2.094;2024-03-06T03:44:51;100748.60;;;7.38;54.07
73242;BME280;65659;49.234;-2.094;2024-03-06T03:47:16;100750.61;;;7.16;53.95
73242;BME280;65659;49.234;-2.094;2024-03-06T03:49:42;100748.20;;;7.39;53.93
73242;BME280;65659;49.234;-2.094;2024-03-06T03:52:07;100747.47;;;7.37;53.91
73242;BME280;65659;49.234;-2.094;2024-03-06T03:54:32;100748.94;;;7.36;53.92
73242;BME280;65659;49.234;-2.094;2024-03-06T03:56:59;100749.01;;;7.29;53.72
73242;BME280;65659;49.234;-2.094;2024-03-06T03:59:23;100752.58;;;7.23;53.58
73242;BME280;65659;49.234;-2.094;2024-03-06T04:01:48;100751.92;;;6.91;53.56
73242;BME280;65659;49.234;-2.094;2024-03-06T04:04:13;100756.96;;;7.05;53.56
73242;BME280;65659;49.234;-2.094;2024-03-06T04:06:39;100755.97;;;7.03;53.65
73242;BME280;65659;49.234;-2.094;2024-03-06T04:09:04;100755.21;;;6.99;53.71
73242;BME280;65659;49.234;-2.094;2024-03-06T04:11:29;100756.72;;;6.98;53.78
73242;BME280;65659;49.234;-2.094;2024-03-06T04:13:55;100756.10;;;6.96;53.90
73242;BME280;65659;49.234;-2.094;2024-03-06T04:16:21;100755.24;;;6.96;54.05
73242;BME280;65659;49.234;-2.094;2024-03-06T04:18:46;100756.66;;;6.99;53.99
73242;BME280;65659;49.234;-2.094;2024-03-06T04:21:11;100758.01;;;6.75;54.09
73242;BME280;65659;49.234;-2.094;2024-03-06T04:23:36;100759.44;;;7.00;54.09
73242;BME280;65659;49.234;-2.094;2024-03-06T04:26:03;100758.32;;;6.99;54.18
73242;BME280;65659;49.234;-2.094;2024-03-06T04:28:27;100758.89;;;7.01;54.20
73242;BME280;65659;49.234;-2.094;2024-03-06T04:30:53;100759.01;;;7.05;54.15
73242;BME280;65659;49.234;-2.094;2024-03-06T04:33:17;100757.61;;;7.05;54.26
73242;BME280;65659;49.234;-2.094;2024-03-06T04:35:43;100754.53;;;7.07;54.21
73242;BME280;65659;49.234;-2.094;2024-03-06T04:38:08;100759.13;;;7.08;54.18
73242;BME280;65659;49.234;-2.094;2024-03-06T04:40:34;100761.36;;;7.06;54.34
73242;BME280;65659;49.234;-2.094;2024-03-06T04:42:59;100759.77;;;7.09;54.22
73242;BME280;65659;49.234;-2.094;2024-03-06T04:45:24;100758.98;;;7.08;54.22
73242;BME280;65659;49.234;-2.094;2024-03-06T04:47:49;100762.65;;;7.06;54.27
73242;BME280;65659;49.234;-2.094;2024-03-06T04:50:16;100760.87;;;7.06;54.25
73242;BME280;65659;49.234;-2.094;2024-03-06T04:52:41;100759.39;;;7.09;54.24
73242;BME280;65659;49.234;-2.094;2024-03-06T04:55:07;100757.93;;;7.10;54.17
73242;BME280;65659;49.234;-2.094;2024-03-06T04:57:31;100756.53;;;7.10;54.20
73242;BME280;65659;49.234;-2.094;2024-03-06T04:59:57;100752.35;;;7.10;54.17
73242;BME280;65659;49.234;-2.094;2024-03-06T05:02:23;100752.62;;;7.10;54.17
73242;BME280;65659;49.234;-2.094;2024-03-06T05:04:47;100751.58;;;7.11;54.16
73242;BME280;65659;49.234;-2.094;2024-03-06T05:07:13;100754.56;;;7.09;54.29
73242;BME280;65659;49.234;-2.094;2024-03-06T05:09:38;100757.47;;;7.08;54.25
73242;BME280;65659;49.234;-2.094;2024-03-06T05:12:03;100759.64;;;7.07;54.29
73242;BME280;65659;49.234;-2.094;2024-03-06T05:14:28;100761.49;;;7.04;54.31
73242;BME280;65659;49.234;-2.094;2024-03-06T05:16:54;100762.19;;;7.04;54.37
73242;BME280;65659;49.234;-2.094;2024-03-06T05:19:19;100764.91;;;7.01;54.31
73242;BME280;65659;49.234;-2.094;2024-03-06T05:21:44;100762.82;;;7.00;54.33
73242;BME280;65659;49.234;-2.094;2024-03-06T05:24:09;100769.29;;;6.79;54.23
73242;BME280;65659;49.234;-2.094;2024-03-06T05:26:35;100768.61;;;7.02;54.23
73242;BME280;65659;49.234;-2.094;2024-03-06T05:29:00;100768.53;;;6.99;54.27
73242;BME280;65659;49.234;-2.094;2024-03-06T05:31:25;100768.97;;;6.97;54.34
73242;BME280;65659;49.234;-2.094;2024-03-06T05:33:51;100772.09;;;6.98;54.40
73242;BME280;65659;49.234;-2.094;2024-03-06T05:36:16;100776.48;;;6.99;54.31
73242;BME280;65659;49.234;-2.094;2024-03-06T05:38:42;100775.84;;;6.98;54.42
73242;BME280;65659;49.234;-2.094;2024-03-06T05:41:06;100777.23;;;6.74;54.41
73242;BME280;65659;49.234;-2.094;2024-03-06T05:43:32;100779.90;;;6.76;54.41
73242;BME280;65659;49.234;-2.094;2024-03-06T05:45:57;100779.04;;;7.00;54.44
73242;BME280;65659;49.234;-2.094;2024-03-06T05:48:22;100778.19;;;6.99;54.50
73242;BME280;65659;49.234;-2.094;2024-03-06T05:50:47;100780.12;;;7.00;54.51
73242;BME280;65659;49.234;-2.094;2024-03-06T05:53:12;100784.22;;;6.98;54.54
73242;BME280;65659;49.234;-2.094;2024-03-06T05:55:37;100786.10;;;6.98;54.47
73242;BME280;65659;49.234;-2.094;2024-03-06T05:58:02;100783.99;;;6.94;54.26
73242;BME280;65659;49.234;-2.094;2024-03-06T06:00:28;100784.87;;;6.87;54.24
73242;BME280;65659;49.234;-2.094;2024-03-06T06:02:53;100785.79;;;6.81;54.09
73242;BME280;65659;49.234;-2.094;2024-03-06T06:05:18;100785.07;;;6.49;54.11
73242;BME280;65659;49.234;-2.094;2024-03-06T06:07:43;100782.99;;;6.71;54.09
73242;BME280;65659;49.234;-2.094;2024-03-06T06:10:08;100789.14;;;6.68;54.13
73242;BME280;65659;49.234;-2.094;2024-03-06T06:12:34;100792.79;;;6.68;54.18
73242;BME280;65659;49.234;-2.094;2024-03-06T06:15:00;100793.49;;;6.73;54.02
73242;BME280;65659;49.234;-2.094;2024-03-06T06:17:24;100798.34;;;6.77;54.01
73242;BME280;65659;49.234;-2.094;2024-03-06T06:19:49;100799.19;;;6.78;54.03
73242;BME280;65659;49.234;-2.094;2024-03-06T06:22:15;100801.08;;;6.76;54.17
73242;BME280;65659;49.234;-2.094;2024-03-06T06:24:40;100801.17;;;6.49;54.31
73242;BME280;65659;49.234;-2.094;2024-03-06T06:27:06;100803.72;;;6.99;54.28
73242;BME280;65659;49.234;-2.094;2024-03-06T06:29:31;100808.36;;;6.84;54.26
73242;BME280;65659;49.234;-2.094;2024-03-06T06:31:56;100808.33;;;6.87;54.29
73242;BME280;65659;49.234;-2.094;2024-03-06T06:34:22;100810.13;;;6.84;54.52
73242;BME280;65659;49.234;-2.094;2024-03-06T06:36:46;100815.87;;;6.80;54.46
73242;BME280;65659;49.234;-2.094;2024-03-06T06:39:12;100820.29;;;6.83;54.31
73242;BME280;65659;49.234;-2.094;2024-03-06T06:41:36;100823.62;;;6.89;54.19
73242;BME280;65659;49.234;-2.094;2024-03-06T06:44:02;100823.70;;;6.63;54.40
73242;BME280;65659;49.234;-2.094;2024-03-06T06:46:27;100823.15;;;6.88;54.50
73242;BME280;65659;49.234;-2.094;2024-03-06T06:48:52;100822.56;;;6.93;54.48
73242;BME280;65659;49.234;-2.094;2024-03-06T06:51:17;100824.68;;;6.96;54.48
73242;BME280;65659;49.234;-2.094;2024-03-06T06:53:43;100826.30;;;6.95;54.54
73242;BME280;65659;49.234;-2.094;2024-03-06T06:56:08;100827.97;;;7.00;54.51
73242;BME280;65659;49.234;-2.094;2024-03-06T06:58:33;100833.04;;;6.79;54.60
73242;BME280;65659;49.234;-2.094;2024-03-06T07:00:59;100827.33;;;7.04;54.53
73242;BME280;65659;49.234;-2.094;2024-03-06T07:03:24;100832.02;;;6.85;54.67
73242;BME280;65659;49.234;-2.094;2024-03-06T07:05:49;100832.13;;;7.37;54.58
73242;BME280;65659;49.234;-2.094;2024-03-06T07:08:15;100830.73;;;6.95;54.57
73242;BME280;65659;49.234;-2.094;2024-03-06T07:10:41;100832.68;;;7.23;54.67
73242;BME280;65659;49.234;-2.094;2024-03-06T07:13:05;100835.03;;;6.86;54.52
73242;BME280;65659;49.234;-2.094;2024-03-06T07:15:31;100835.32;;;6.99;54.25
73242;BME280;65659;49.234;-2.094;2024-03-06T07:17:56;100835.08;;;7.06;54.07
73242;BME280;65659;49.234;-2.094;2024-03-06T07:20:21;100836.08;;;7.14;54.05
73242;BME280;65659;49.234;-2.094;2024-03-06T07:22:46;100836.94;;;7.22;54.02
73242;BME280;65659;49.234;-2.094;2024-03-06T07:25:12;100837.41;;;7.29;54.03
73242;BME280;65659;49.234;-2.094;2024-03-06T07:27:37;100835.19;;;7.35;54.08
73242;BME280;65659;49.234;-2.094;2024-03-06T07:30:02;100833.66;;;7.13;54.23
73242;BME280;65659;49.234;-2.094;2024-03-06T07:32:27;100833.30;;;7.45;54.25
73242;BME280;65659;49.234;-2.094;2024-03-06T07:34:53;100832.05;;;7.55;54.20
73242;BME280;65659;49.234;-2.094;2024-03-06T07:37:18;100830.69;;;7.65;54.19
73242;BME280;65659;49.234;-2.094;2024-03-06T07:39:44;100832.12;;;7.76;54.26
73242;BME280;65659;49.234;-2.094;2024-03-06T07:42:09;100833.89;;;7.89;54.34
73242;BME280;65659;49.234;-2.094;2024-03-06T07:44:35;100838.21;;;7.96;54.45
73242;BME280;65659;49.234;-2.094;2024-03-06T07:47:05;100838.52;;;7.74;54.26
73242;BME280;65659;49.234;-2.094;2024-03-06T07:49:25;100835.71;;;7.91;54.16
73242;BME280;65659;49.234;-2.094;2024-03-06T07:51:51;100837.29;;;8.09;54.14
73242;BME280;65659;49.234;-2.094;2024-03-06T07:54:16;100838.17;;;7.79;54.03
73242;BME280;65659;49.234;-2.094;2024-03-06T07:56:41;100839.56;;;8.06;53.81
73242;BME280;65659;49.234;-2.094;2024-03-06T07:59:07;100841.61;;;8.31;53.60
73242;BME280;65659;49.234;-2.094;2024-03-06T08:01:33;100835.44;;;8.16;53.28
73242;BME280;65659;49.234;-2.094;2024-03-06T08:03:59;100837.26;;;8.47;52.96
73242;BME280;65659;49.234;-2.094;2024-03-06T08:06:23;100833.93;;;8.51;52.69
73242;BME280;65659;49.234;-2.094;2024-03-06T08:08:49;100833.48;;;8.97;52.62
73242;BME280;65659;49.234;-2.094;2024-03-06T08:11:14;100834.67;;;8.85;52.73
73242;BME280;65659;49.234;-2.094;2024-03-06T08:13:40;100835.28;;;8.82;52.70
73242;BME280;65659;49.234;-2.094;2024-03-06T08:16:06;100837.16;;;8.72;52.30
73242;BME280;65659;49.234;-2.094;2024-03-06T08:18:30;100840.38;;;9.06;51.99
73242;BME280;65659;49.234;-2.094;2024-03-06T08:20:55;100845.94;;;9.42;51.65
73242;BME280;65659;49.234;-2.094;2024-03-06T08:23:21;100846.57;;;9.37;51.18
73242;BME280;65659;49.234;-2.094;2024-03-06T08:25:46;100844.17;;;9.35;50.71
73242;BME280;65659;49.234;-2.094;2024-03-06T08:28:11;100844.32;;;9.67;50.36
73242;BME280;65659;49.234;-2.094;2024-03-06T08:30:37;100841.67;;;9.88;50.32
73242;BME280;65659;49.234;-2.094;2024-03-06T08:33:02;100843.65;;;10.02;49.97
73242;BME280;65659;49.234;-2.094;2024-03-06T08:35:29;100848.03;;;10.25;49.84
73242;BME280;65659;49.234;-2.094;2024-03-06T08:37:53;100847.48;;;10.24;49.67
73242;BME280;65659;49.234;-2.094;2024-03-06T08:40:18;100849.44;;;10.47;49.48
73242;BME280;65659;49.234;-2.094;2024-03-06T08:42:43;100851.07;;;10.66;49.35
73242;BME280;65659;49.234;-2.094;2024-03-06T08:45:09;100854.78;;;10.84;49.20
73242;BME280;65659;49.234;-2.094;2024-03-06T08:47:34;100852.56;;;10.79;49.06
73242;BME280;65659;49.234;-2.094;2024-03-06T08:50:00;100854.83;;;11.00;48.84
73242;BME280;65659;49.234;-2.094;2024-03-06T08:52:24;100856.65;;;11.13;48.85
73242;BME280;65659;49.234;-2.094;2024-03-06T08:54:51;100856.67;;;11.00;48.70
73242;BME280;65659;49.234;-2.094;2024-03-06T08:57:15;100856.38;;;11.23;48.63
73242;BME280;65659;49.234;-2.094;2024-03-06T08:59:39;100859.83;;;11.43;48.45
73242;BME280;65659;49.234;-2.094;2024-03-06T09:02:14;100860.55;;;11.52;48.43
73242;BME280;65659;49.234;-2.094;2024-03-06T09:04:32;100857.08;;;11.69;48.19
73242;BME280;65659;49.234;-2.094;2024-03-06T09:06:57;100855.38;;;11.80;47.96
73242;BME280;65659;49.234;-2.094;2024-03-06T09:09:22;100851.82;;;11.90;48.00
73242;BME280;65659;49.234;-2.094;2024-03-06T09:11:48;100853.76;;;11.82;47.71
73242;BME280;65659;49.234;-2.094;2024-03-06T09:14:13;100857.81;;;11.93;47.44
73242;BME280;65659;49.234;-2.094;2024-03-06T09:16:39;100863.39;;;11.99;47.04
73242;BME280;65659;49.234;-2.094;2024-03-06T09:19:03;100863.96;;;12.09;46.84
73242;BME280;65659;49.234;-2.094;2024-03-06T09:21:28;100864.53;;;12.18;46.39
73242;BME280;65659;49.234;-2.094;2024-03-06T09:23:55;100865.20;;;12.23;46.10
73242;BME280;65659;49.234;-2.094;2024-03-06T09:26:21;100867.53;;;12.35;45.93
73242;BME280;65659;49.234;-2.094;2024-03-06T09:28:47;100867.89;;;12.65;45.60
73242;BME280;65659;49.234;-2.094;2024-03-06T09:31:12;100869.41;;;12.14;45.03
73242;BME280;65659;49.234;-2.094;2024-03-06T09:33:39;100870.79;;;12.20;44.74
73242;BME280;65659;49.234;-2.094;2024-03-06T09:36:03;100871.31;;;12.54;44.72
73242;BME280;65659;49.234;-2.094;2024-03-06T09:38:27;100869.40;;;12.50;44.50
73242;BME280;65659;49.234;-2.094;2024-03-06T09:40:57;100869.82;;;12.36;43.87
73242;BME280;65659;49.234;-2.094;2024-03-06T09:43:20;100871.18;;;13.00;43.62
73242;BME280;65659;49.234;-2.094;2024-03-06T09:45:49;100872.11;;;12.59;43.30
73242;BME280;65659;49.234;-2.094;2024-03-06T09:48:12;100870.29;;;12.70;42.95
73242;BME280;65659;49.234;-2.094;2024-03-06T09:50:38;100876.18;;;12.73;42.13
73242;BME280;65659;49.234;-2.094;2024-03-06T09:53:04;100874.84;;;12.47;41.93
73242;BME280;65659;49.234;-2.094;2024-03-06T09:55:29;100878.87;;;12.95;41.55
73242;BME280;65659;49.234;-2.094;2024-03-06T09:57:53;100877.96;;;12.98;41.17
73242;BME280;65659;49.234;-2.094;2024-03-06T10:00:21;100884.41;;;13.03;41.19
73242;BME280;65659;49.234;-2.094;2024-03-06T10:02:51;100881.40;;;12.96;40.75
73242;BME280;65659;49.234;-2.094;2024-03-06T10:05:21;100882.66;;;12.53;40.80
73242;BME280;65659;49.234;-2.094;2024-03-06T10:07:36;100880.82;;;12.93;40.71
73242;BME280;65659;49.234;-2.094;2024-03-06T10:10:03;100883.24;;;13.06;40.56
73242;BME280;65659;49.234;-2.094;2024-03-06T10:12:29;100886.95;;;12.94;40.38
73242;BME280;65659;49.234;-2.094;2024-03-06T10:14:53;100886.45;;;13.47;40.19
73242;BME280;65659;49.234;-2.094;2024-03-06T10:17:23;100889.66;;;13.16;40.28
73242;BME280;65659;49.234;-2.094;2024-03-06T10:19:43;100887.21;;;12.93;40.03
73242;BME280;65659;49.234;-2.094;2024-03-06T10:22:09;100885.99;;;13.49;39.74
73242;BME280;65659;49.234;-2.094;2024-03-06T10:24:34;100890.18;;;13.18;39.56
73242;BME280;65659;49.234;-2.094;2024-03-06T10:27:01;100886.92;;;13.47;39.08
73242;BME280;65659;49.234;-2.094;2024-03-06T10:29:27;100887.87;;;13.07;38.87
73242;BME280;65659;49.234;-2.094;2024-03-06T10:31:56;100885.49;;;13.72;38.74
73242;BME280;65659;49.234;-2.094;2024-03-06T10:34:19;100886.75;;;13.76;38.74
73242;BME280;65659;49.234;-2.094;2024-03-06T10:36:44;100889.84;;;13.46;38.96
73242;BME280;65659;49.234;-2.094;2024-03-06T10:39:09;100887.15;;;13.51;38.69
73242;BME280;65659;49.234;-2.094;2024-03-06T10:41:34;100889.62;;;13.64;38.78
73242;BME280;65659;49.234;-2.094;2024-03-06T10:44:01;100888.39;;;13.77;38.30
73242;BME280;65659;49.234;-2.094;2024-03-06T10:46:27;100890.88;;;13.76;38.31
73242;BME280;65659;49.234;-2.094;2024-03-06T10:48:51;100891.85;;;13.78;38.17
73242;BME280;65659;49.234;-2.094;2024-03-06T10:51:18;100888.40;;;13.88;38.16
73242;BME280;65659;49.234;-2.094;2024-03-06T10:53:43;100894.19;;;13.86;38.16
73242;BME280;65659;49.234;-2.094;2024-03-06T10:56:10;100891.68;;;13.97;37.68
73242;BME280;65659;49.234;-2.094;2024-03-06T10:58:34;100892.88;;;13.88;37.93
73242;BME280;65659;49.234;-2.094;2024-03-06T11:01:01;100890.11;;;13.89;37.55
73242;BME280;65659;49.234;-2.094;2024-03-06T11:03:24;100895.40;;;14.06;37.80
73242;BME280;65659;49.234;-2.094;2024-03-06T11:05:49;100890.66;;;14.17;37.85
73242;BME280;65659;49.234;-2.094;2024-03-06T11:08:17;100893.86;;;14.24;37.23
73242;BME280;65659;49.234;-2.094;2024-03-06T11:10:41;100895.56;;;14.30;37.24
73242;BME280;65659;49.234;-2.094;2024-03-06T11:13:21;100892.02;;;14.38;36.89
73242;BME280;65659;49.234;-2.094;2024-03-06T11:15:33;100890.37;;;14.18;37.05
73242;BME280;65659;49.234;-2.094;2024-03-06T11:17:58;100892.25;;;14.28;36.71
73242;BME280;65659;49.234;-2.094;2024-03-06T11:20:24;100898.69;;;14.37;36.28
73242;BME280;65659;49.234;-2.094;2024-03-06T11:30:08;100903.36;;;14.56;35.94
73242;BME280;65659;49.234;-2.094;2024-03-06T11:32:30;100905.61;;;14.65;35.48
73242;BME280;65659;49.234;-2.094;2024-03-06T11:35:02;100905.10;;;15.25;35.74
73242;BME280;65659;49.234;-2.094;2024-03-06T11:37:22;100907.68;;;14.26;36.14
73242;BME280;65659;49.234;-2.094;2024-03-06T11:39:48;100904.56;;;14.53;36.04
73242;BME280;65659;49.234;-2.094;2024-03-06T11:42:12;100908.46;;;14.67;35.80
73242;BME280;65659;49.234;-2.094;2024-03-06T11:44:37;100909.51;;;14.38;35.99
73242;BME280;65659;49.234;-2.094;2024-03-06T11:47:03;100907.61;;;14.76;35.86
73242;BME280;65659;49.234;-2.094;2024-03-06T11:49:29;100904.47;;;14.51;35.73
73242;BME280;65659;49.234;-2.094;2024-03-06T11:51:55;100902.79;;;14.58;35.79
73242;BME280;65659;49.234;-2.094;2024-03-06T11:54:20;100900.92;;;14.65;35.81
73242;BME280;65659;49.234;-2.094;2024-03-06T11:56:45;100906.23;;;14.91;35.84
73242;BME280;65659;49.234;-2.094;2024-03-06T11:59:10;100901.58;;;14.57;35.86
73242;BME280;65659;49.234;-2.094;2024-03-06T12:01:36;100903.71;;;15.23;35.55
73242;BME280;65659;49.234;-2.094;2024-03-06T12:04:03;100906.81;;;14.71;35.29
73242;BME280;65659;49.234;-2.094;2024-03-06T12:06:28;100908.88;;;14.78;35.09
73242;BME280;65659;49.234;-2.094;2024-03-06T12:08:53;100905.37;;;15.25;34.94
73242;BME280;65659;49.234;-2.094;2024-03-06T12:11:20;100908.37;;;15.21;35.47
73242;BME280;65659;49.234;-2.094;2024-03-06T12:16:10;100904.24;;;14.39;35.99
73242;BME280;65659;49.234;-2.094;2024-03-06T12:18:35;100904.49;;;14.67;35.66
73242;BME280;65659;49.234;-2.094;2024-03-06T12:21:04;100901.60;;;14.99;34.87
73242;BME280;65659;49.234;-2.094;2024-03-06T12:23:25;100898.05;;;14.94;34.48
73242;BME280;65659;49.234;-2.094;2024-03-06T12:26:01;100900.43;;;15.43;33.80
73242;BME280;65659;49.234;-2.094;2024-03-06T12:28:17;100897.05;;;15.05;33.51
73242;BME280;65659;49.234;-2.094;2024-03-06T12:30:42;100898.17;;;15.70;33.43
73242;BME280;65659;49.234;-2.094;2024-03-06T12:33:07;100896.72;;;15.64;33.03
73242;BME280;65659;49.234;-2.094;2024-03-06T12:35:33;100896.66;;;15.55;32.71
73242;BME280;65659;49.234;-2.094;2024-03-06T12:37:59;100890.85;;;15.87;32.54
73242;BME280;65659;49.234;-2.094;2024-03-06T12:40:26;100892.79;;;15.83;32.56
73242;BME280;65659;49.234;-2.094;2024-03-06T12:42:50;100887.85;;;16.11;32.08
73242;BME280;65659;49.234;-2.094;2024-03-06T12:45:17;100883.47;;;15.86;32.18
73242;BME280;65659;49.234;-2.094;2024-03-06T12:47:42;100876.91;;;16.12;31.77